sensor_id;sensor_type;location;lat;lon;timestamp;P1;durP1;ratioP1;P2;durP2;ratioP2
15616;SDS011;7908;51.688;7.130;2022-09-12T00:00:09;23.10;;;17.10;;
15616;SDS011;7908;51.688;7.130;2022-09-12T00:02:38;17.77;;;15.87;;
15616;SDS011;7908;51.688;7.130;2022-09-12T00:05:07;22.37;;;16.47;;
15616;SDS011;7908;51.688;7.130;2022-09-12T00:07:37;19.23;;;16.57;;
15616;SDS011;7908;51.688;7.130;2022-09-12T00:10:07;20.67;;;17.07;;
15616;SDS011;7908;51.688;7.130;2022-09-12T00:12:36;19.40;;;16.33;;
15616;SDS011;7908;51.688;7.130;2022-09-12T00:15:05;20.97;;;18.50;;
15616;SDS011;7908;51.688;7.130;2022-09-12T00:17:35;19.30;;;17.20;;
15616;SDS011;7908;51.688;7.130;2022-09-12T00:20:06;22.83;;;17.83;;
15616;SDS011;7908;51.688;7.130;2022-09-12T00:22:37;20.43;;;17.63;;
15616;SDS011;7908;51.688;7.130;2022-09-12T00:25:06;21.37;;;17.50;;
15616;SDS011;7908;51.688;7.130;2022-09-12T00:27:36;22.73;;;18.40;;
15616;SDS011;7908;51.688;7.130;2022-09-12T00:30:05;20.27;;;17.73;;
15616;SDS011;7908;51.688;7.130;2022-09-12T00:32:35;21.57;;;18.87;;
15616;SDS011;7908;51.688;7.130;2022-09-12T00:35:04;22.40;;;18.03;;
15616;SDS011;7908;51.688;7.130;2022-09-12T00:37:34;22.70;;;18.40;;
15616;SDS011;7908;51.688;7.130;2022-09-12T00:40:05;22.03;;;18.40;;
15616;SDS011;7908;51.688;7.130;2022-09-12T00:42:35;22.60;;;18.93;;
15616;SDS011;7908;51.688;7.130;2022-09-12T00:45:05;22.90;;;18.93;;
15616;SDS011;7908;51.688;7.130;2022-09-12T01:03:21;23.90;;;19.23;;
15616;SDS011;7908;51.688;7.130;2022-09-12T01:05:52;26.77;;;19.27;;
15616;SDS011;7908;51.688;7.130;2022-09-12T01:08:26;28.17;;;20.67;;
15616;SDS011;7908;51.688;7.130;2022-09-12T01:10:56;25.77;;;20.10;;
15616;SDS011;7908;51.688;7.130;2022-09-12T01:13:25;23.77;;;19.80;;
15616;SDS011;7908;51.688;7.130;2022-09-12T01:15:53;22.67;;;18.83;;
15616;SDS011;7908;51.688;7.130;2022-09-12T01:18:26;24.60;;;19.67;;
15616;SDS011;7908;51.688;7.130;2022-09-12T01:21:10;23.47;;;19.23;;
15616;SDS011;7908;51.688;7.130;2022-09-12T01:27:21;23.63;;;19.77;;
15616;SDS011;7908;51.688;7.130;2022-09-12T01:30:15;24.90;;;19.20;;
15616;SDS011;7908;51.688;7.130;2022-09-12T01:36:10;25.93;;;20.20;;
15616;SDS011;7908;51.688;7.130;2022-09-12T01:39:02;27.40;;;21.57;;
15616;SDS011;7908;51.688;7.130;2022-09-12T01:41:39;28.63;;;21.53;;
15616;SDS011;7908;51.688;7.130;2022-09-12T01:44:13;24.93;;;20.40;;
15616;SDS011;7908;51.688;7.130;2022-09-12T01:46:51;25.77;;;19.57;;
15616;SDS011;7908;51.688;7.130;2022-09-12T01:49:26;23.80;;;20.57;;
15616;SDS011;7908;51.688;7.130;2022-09-12T01:52:00;28.87;;;21.33;;
15616;SDS011;7908;51.688;7.130;2022-09-12T01:54:33;24.10;;;19.43;;
15616;SDS011;7908;51.688;7.130;2022-09-12T01:57:09;28.03;;;21.20;;
15616;SDS011;7908;51.688;7.130;2022-09-12T01:59:42;25.50;;;20.90;;
15616;SDS011;7908;51.688;7.130;2022-09-12T02:02:17;27.17;;;20.67;;
15616;SDS011;7908;51.688;7.130;2022-09-12T02:04:51;30.00;;;21.77;;
15616;SDS011;7908;51.688;7.130;2022-09-12T02:07:24;26.07;;;21.30;;
15616;SDS011;7908;51.688;7.130;2022-09-12T02:09:59;29.17;;;20.87;;
15616;SDS011;7908;51.688;7.130;2022-09-12T02:12:36;27.23;;;21.27;;
15616;SDS011;7908;51.688;7.130;2022-09-12T02:15:09;27.00;;;21.73;;
15616;SDS011;7908;51.688;7.130;2022-09-12T02:17:42;28.27;;;22.37;;
15616;SDS011;7908;51.688;7.130;2022-09-12T02:20:15;28.00;;;22.30;;
15616;SDS011;7908;51.688;7.130;2022-09-12T02:23:07;27.30;;;21.43;;
15616;SDS011;7908;51.688;7.130;2022-09-12T02:25:38;31.03;;;21.17;;
15616;SDS011;7908;51.688;7.130;2022-09-12T02:28:11;25.60;;;20.30;;
15616;SDS011;7908;51.688;7.130;2022-09-12T02:30:43;27.17;;;21.00;;
15616;SDS011;7908;51.688;7.130;2022-09-12T02:33:21;26.00;;;20.47;;
15616;SDS011;7908;51.688;7.130;2022-09-12T02:35:56;27.00;;;20.50;;
15616;SDS011;7908;51.688;7.130;2022-09-12T02:38:32;27.23;;;21.33;;
15616;SDS011;7908;51.688;7.130;2022-09-12T02:41:07;28.33;;;21.20;;
15616;SDS011;7908;51.688;7.130;2022-09-12T02:43:36;27.53;;;21.40;;
15616;SDS011;7908;51.688;7.130;2022-09-12T02:46:06;28.50;;;21.53;;
15616;SDS011;7908;51.688;7.130;2022-09-12T02:48:41;28.03;;;21.00;;
15616;SDS011;7908;51.688;7.130;2022-09-12T02:51:10;27.80;;;21.30;;
15616;SDS011;7908;51.688;7.130;2022-09-12T02:53:39;28.60;;;20.93;;
15616;SDS011;7908;51.688;7.130;2022-09-12T02:56:10;28.50;;;20.90;;
15616;SDS011;7908;51.688;7.130;2022-09-12T02:58:43;26.57;;;19.20;;
15616;SDS011;7908;51.688;7.130;2022-09-12T03:01:15;27.27;;;19.53;;
15616;SDS011;7908;51.688;7.130;2022-09-12T03:04:04;25.53;;;20.03;;
15616;SDS011;7908;51.688;7.130;2022-09-12T03:06:50;27.27;;;20.57;;
15616;SDS011;7908;51.688;7.130;2022-09-12T03:09:33;26.17;;;19.37;;
15616;SDS011;7908;51.688;7.130;2022-09-12T03:12:09;26.93;;;20.43;;
15616;SDS011;7908;51.688;7.130;2022-09-12T03:14:55;26.43;;;19.60;;
15616;SDS011;7908;51.688;7.130;2022-09-12T03:17:35;28.07;;;20.73;;
15616;SDS011;7908;51.688;7.130;2022-09-12T03:20:12;26.77;;;19.50;;
15616;SDS011;7908;51.688;7.130;2022-09-12T03:22:47;24.73;;;18.53;;
15616;SDS011;7908;51.688;7.130;2022-09-12T03:25:21;34.67;;;20.43;;
15616;SDS011;7908;51.688;7.130;2022-09-12T03:27:55;25.20;;;19.17;;
15616;SDS011;7908;51.688;7.130;2022-09-12T03:30:26;25.30;;;18.93;;
15616;SDS011;7908;51.688;7.130;2022-09-12T03:32:55;24.80;;;18.97;;
15616;SDS011;7908;51.688;7.130;2022-09-12T03:35:25;24.17;;;18.30;;
15616;SDS011;7908;51.688;7.130;2022-09-12T03:37:53;25.40;;;19.03;;
15616;SDS011;7908;51.688;7.130;2022-09-12T03:40:22;26.03;;;17.83;;
15616;SDS011;7908;51.688;7.130;2022-09-12T03:42:50;24.33;;;18.17;;
15616;SDS011;7908;51.688;7.130;2022-09-12T03:45:19;26.77;;;18.37;;
15616;SDS011;7908;51.688;7.130;2022-09-12T03:47:49;24.73;;;18.70;;
15616;SDS011;7908;51.688;7.130;2022-09-12T03:50:17;23.90;;;18.60;;
15616;SDS011;7908;51.688;7.130;2022-09-12T03:52:47;29.33;;;19.13;;
15616;SDS011;7908;51.688;7.130;2022-09-12T03:55:16;25.17;;;18.63;;
15616;SDS011;7908;51.688;7.130;2022-09-12T03:57:44;23.17;;;18.17;;
15616;SDS011;7908;51.688;7.130;2022-09-12T04:00:13;25.60;;;17.73;;
15616;SDS011;7908;51.688;7.130;2022-09-12T04:02:45;22.80;;;18.53;;
15616;SDS011;7908;51.688;7.130;2022-09-12T04:05:13;24.40;;;17.47;;
15616;SDS011;7908;51.688;7.130;2022-09-12T04:07:42;25.83;;;17.97;;
15616;SDS011;7908;51.688;7.130;2022-09-12T04:10:12;23.63;;;17.70;;
15616;SDS011;7908;51.688;7.130;2022-09-12T04:12:41;24.03;;;18.13;;
15616;SDS011;7908;51.688;7.130;2022-09-12T04:15:10;25.93;;;18.20;;
15616;SDS011;7908;51.688;7.130;2022-09-12T04:17:39;24.53;;;17.47;;
15616;SDS011;7908;51.688;7.130;2022-09-12T04:20:07;27.70;;;18.67;;
15616;SDS011;7908;51.688;7.130;2022-09-12T04:22:36;23.07;;;17.40;;
15616;SDS011;7908;51.688;7.130;2022-09-12T04:25:05;23.27;;;17.27;;
15616;SDS011;7908;51.688;7.130;2022-09-12T04:27:36;22.60;;;18.10;;
15616;SDS011;7908;51.688;7.130;2022-09-12T04:30:05;23.50;;;18.23;;
15616;SDS011;7908;51.688;7.130;2022-09-12T04:32:35;21.83;;;17.80;;
15616;SDS011;7908;51.688;7.130;2022-09-12T04:35:03;22.20;;;17.50;;
15616;SDS011;7908;51.688;7.130;2022-09-12T04:37:32;28.13;;;17.77;;
15616;SDS011;7908;51.688;7.130;2022-09-12T04:40:01;22.23;;;17.67;;
15616;SDS011;7908;51.688;7.130;2022-09-12T04:42:30;22.53;;;17.77;;
15616;SDS011;7908;51.688;7.130;2022-09-12T04:45:00;21.97;;;17.43;;
15616;SDS011;7908;51.688;7.130;2022-09-12T04:47:29;23.43;;;17.57;;
15616;SDS011;7908;51.688;7.130;2022-09-12T04:49:57;24.83;;;18.07;;
15616;SDS011;7908;51.688;7.130;2022-09-12T04:52:26;23.03;;;18.33;;
15616;SDS011;7908;51.688;7.130;2022-09-12T04:54:54;23.70;;;18.20;;
15616;SDS011;7908;51.688;7.130;2022-09-12T04:57:23;20.60;;;17.13;;
15616;SDS011;7908;51.688;7.130;2022-09-12T04:59:52;21.37;;;17.67;;
15616;SDS011;7908;51.688;7.130;2022-09-12T05:02:22;22.33;;;17.00;;
15616;SDS011;7908;51.688;7.130;2022-09-12T05:04:50;21.27;;;16.93;;
15616;SDS011;7908;51.688;7.130;2022-09-12T05:07:19;25.30;;;17.97;;
15616;SDS011;7908;51.688;7.130;2022-09-12T05:09:48;22.33;;;17.30;;
15616;SDS011;7908;51.688;7.130;2022-09-12T05:12:17;22.43;;;17.53;;
15616;SDS011;7908;51.688;7.130;2022-09-12T05:14:45;24.03;;;18.47;;
15616;SDS011;7908;51.688;7.130;2022-09-12T05:17:14;22.33;;;17.70;;
15616;SDS011;7908;51.688;7.130;2022-09-12T05:19:44;22.93;;;17.83;;
15616;SDS011;7908;51.688;7.130;2022-09-12T05:22:14;22.30;;;18.30;;
15616;SDS011;7908;51.688;7.130;2022-09-12T05:24:43;22.80;;;17.93;;
15616;SDS011;7908;51.688;7.130;2022-09-12T05:27:16;21.17;;;17.77;;
15616;SDS011;7908;51.688;7.130;2022-09-12T05:29:45;25.53;;;19.50;;
15616;SDS011;7908;51.688;7.130;2022-09-12T05:32:13;24.57;;;19.97;;
15616;SDS011;7908;51.688;7.130;2022-09-12T05:34:42;26.17;;;19.37;;
15616;SDS011;7908;51.688;7.130;2022-09-12T05:37:12;25.53;;;19.17;;
15616;SDS011;7908;51.688;7.130;2022-09-12T05:39:41;23.87;;;18.37;;
15616;SDS011;7908;51.688;7.130;2022-09-12T05:42:09;20.03;;;17.37;;
15616;SDS011;7908;51.688;7.130;2022-09-12T05:44:38;21.93;;;18.53;;
15616;SDS011;7908;51.688;7.130;2022-09-12T05:47:07;19.83;;;17.37;;
15616;SDS011;7908;51.688;7.130;2022-09-12T05:49:38;19.00;;;16.70;;
15616;SDS011;7908;51.688;7.130;2022-09-12T05:52:08;19.17;;;17.17;;
15616;SDS011;7908;51.688;7.130;2022-09-12T05:54:37;20.80;;;17.73;;
15616;SDS011;7908;51.688;7.130;2022-09-12T05:57:06;20.80;;;17.90;;
15616;SDS011;7908;51.688;7.130;2022-09-12T05:59:35;19.70;;;17.23;;
15616;SDS011;7908;51.688;7.130;2022-09-12T06:02:04;19.00;;;17.07;;
15616;SDS011;7908;51.688;7.130;2022-09-12T06:04:33;18.00;;;16.17;;
15616;SDS011;7908;51.688;7.130;2022-09-12T06:07:01;17.77;;;15.93;;
15616;SDS011;7908;51.688;7.130;2022-09-12T06:09:31;19.20;;;16.53;;
15616;SDS011;7908;51.688;7.130;2022-09-12T06:12:00;20.43;;;16.03;;
15616;SDS011;7908;51.688;7.130;2022-09-12T06:14:29;16.70;;;15.00;;
15616;SDS011;7908;51.688;7.130;2022-09-12T06:17:01;17.27;;;15.50;;
15616;SDS011;7908;51.688;7.130;2022-09-12T06:19:31;18.40;;;16.43;;
15616;SDS011;7908;51.688;7.130;2022-09-12T06:22:00;16.50;;;14.50;;
15616;SDS011;7908;51.688;7.130;2022-09-12T06:24:29;16.60;;;15.00;;
15616;SDS011;7908;51.688;7.130;2022-09-12T06:27:00;18.13;;;16.23;;
15616;SDS011;7908;51.688;7.130;2022-09-12T06:29:31;18.43;;;15.77;;
15616;SDS011;7908;51.688;7.130;2022-09-12T06:32:00;17.60;;;15.53;;
15616;SDS011;7908;51.688;7.130;2022-09-12T06:34:29;17.10;;;15.30;;
15616;SDS011;7908;51.688;7.130;2022-09-12T06:36:58;17.10;;;15.27;;
15616;SDS011;7908;51.688;7.130;2022-09-12T06:39:34;23.87;;;15.60;;
15616;SDS011;7908;51.688;7.130;2022-09-12T06:42:03;18.17;;;16.37;;
15616;SDS011;7908;51.688;7.130;2022-09-12T06:44:32;17.03;;;15.33;;
15616;SDS011;7908;51.688;7.130;2022-09-12T06:47:09;15.57;;;13.97;;
15616;SDS011;7908;51.688;7.130;2022-09-12T06:49:39;17.17;;;15.47;;
15616;SDS011;7908;51.688;7.130;2022-09-12T06:52:15;17.27;;;15.47;;
15616;SDS011;7908;51.688;7.130;2022-09-12T06:54:45;15.87;;;14.03;;
15616;SDS011;7908;51.688;7.130;2022-09-12T06:57:16;15.90;;;14.40;;
15616;SDS011;7908;51.688;7.130;2022-09-12T06:59:45;15.00;;;13.60;;
15616;SDS011;7908;51.688;7.130;2022-09-12T07:02:14;17.00;;;14.37;;
15616;SDS011;7908;51.688;7.130;2022-09-12T07:04:42;15.80;;;14.20;;
15616;SDS011;7908;51.688;7.130;2022-09-12T07:07:11;16.80;;;15.20;;
15616;SDS011;7908;51.688;7.130;2022-09-12T07:09:40;15.77;;;14.07;;
15616;SDS011;7908;51.688;7.130;2022-09-12T07:12:11;14.87;;;13.47;;
15616;SDS011;7908;51.688;7.130;2022-09-12T07:14:40;15.43;;;13.93;;
15616;SDS011;7908;51.688;7.130;2022-09-12T07:17:11;14.97;;;13.47;;
15616;SDS011;7908;51.688;7.130;2022-09-12T07:19:40;15.07;;;13.60;;
15616;SDS011;7908;51.688;7.130;2022-09-12T07:22:09;15.27;;;13.73;;
15616;SDS011;7908;51.688;7.130;2022-09-12T07:24:39;14.93;;;13.43;;
15616;SDS011;7908;51.688;7.130;2022-09-12T07:27:08;14.40;;;13.00;;
15616;SDS011;7908;51.688;7.130;2022-09-12T07:29:41;13.63;;;12.23;;
15616;SDS011;7908;51.688;7.130;2022-09-12T07:32:09;14.07;;;12.13;;
15616;SDS011;7908;51.688;7.130;2022-09-12T07:34:38;13.63;;;12.20;;
15616;SDS011;7908;51.688;7.130;2022-09-12T07:37:10;12.53;;;11.33;;
15616;SDS011;7908;51.688;7.130;2022-09-12T07:39:39;14.20;;;12.80;;
15616;SDS011;7908;51.688;7.130;2022-09-12T07:42:08;15.37;;;12.80;;
15616;SDS011;7908;51.688;7.130;2022-09-12T07:44:39;12.43;;;11.23;;
15616;SDS011;7908;51.688;7.130;2022-09-12T07:47:18;13.27;;;11.70;;
15616;SDS011;7908;51.688;7.130;2022-09-12T07:49:46;12.10;;;11.00;;
15616;SDS011;7908;51.688;7.130;2022-09-12T07:52:15;12.83;;;11.43;;
15616;SDS011;7908;51.688;7.130;2022-09-12T07:54:44;12.33;;;11.13;;
15616;SDS011;7908;51.688;7.130;2022-09-12T07:57:13;12.03;;;10.87;;
15616;SDS011;7908;51.688;7.130;2022-09-12T07:59:43;12.57;;;11.17;;
15616;SDS011;7908;51.688;7.130;2022-09-12T08:02:18;11.53;;;10.33;;
15616;SDS011;7908;51.688;7.130;2022-09-12T08:04:47;12.40;;;11.07;;
15616;SDS011;7908;51.688;7.130;2022-09-12T08:07:16;12.37;;;11.17;;
15616;SDS011;7908;51.688;7.130;2022-09-12T08:09:45;14.23;;;10.77;;
15616;SDS011;7908;51.688;7.130;2022-09-12T08:12:14;12.90;;;11.70;;
15616;SDS011;7908;51.688;7.130;2022-09-12T08:14:47;14.87;;;12.07;;
15616;SDS011;7908;51.688;7.130;2022-09-12T08:17:16;12.57;;;11.27;;
15616;SDS011;7908;51.688;7.130;2022-09-12T08:19:45;13.20;;;11.90;;
15616;SDS011;7908;51.688;7.130;2022-09-12T08:22:15;12.90;;;11.30;;
15616;SDS011;7908;51.688;7.130;2022-09-12T08:24:47;13.37;;;11.23;;
15616;SDS011;7908;51.688;7.130;2022-09-12T08:27:16;12.93;;;11.23;;
15616;SDS011;7908;51.688;7.130;2022-09-12T08:29:45;15.23;;;12.17;;
15616;SDS011;7908;51.688;7.130;2022-09-12T08:32:16;13.13;;;11.77;;
15616;SDS011;7908;51.688;7.130;2022-09-12T08:34:44;15.17;;;12.00;;
15616;SDS011;7908;51.688;7.130;2022-09-12T08:37:15;13.57;;;12.17;;
15616;SDS011;7908;51.688;7.130;2022-09-12T08:39:46;13.13;;;11.70;;
15616;SDS011;7908;51.688;7.130;2022-09-12T08:42:16;13.33;;;11.93;;
15616;SDS011;7908;51.688;7.130;2022-09-12T08:45:07;18.17;;;13.37;;
15616;SDS011;7908;51.688;7.130;2022-09-12T08:47:46;14.47;;;13.00;;
15616;SDS011;7908;51.688;7.130;2022-09-12T08:50:21;15.00;;;12.73;;
15616;SDS011;7908;51.688;7.130;2022-09-12T08:52:59;15.47;;;13.53;;
15616;SDS011;7908;51.688;7.130;2022-09-12T08:55:33;18.37;;;13.30;;
15616;SDS011;7908;51.688;7.130;2022-09-12T08:58:13;18.40;;;12.60;;
15616;SDS011;7908;51.688;7.130;2022-09-12T09:00:47;14.37;;;12.60;;
15616;SDS011;7908;51.688;7.130;2022-09-12T09:03:31;13.93;;;12.47;;
15616;SDS011;7908;51.688;7.130;2022-09-12T09:09:55;14.03;;;12.53;;
15616;SDS011;7908;51.688;7.130;2022-09-12T09:12:37;15.40;;;12.27;;
15616;SDS011;7908;51.688;7.130;2022-09-12T09:15:22;14.63;;;13.07;;
15616;SDS011;7908;51.688;7.130;2022-09-12T09:18:00;15.50;;;12.07;;
15616;SDS011;7908;51.688;7.130;2022-09-12T09:20:42;13.97;;;12.33;;
15616;SDS011;7908;51.688;7.130;2022-09-12T09:23:20;14.00;;;11.80;;
15616;SDS011;7908;51.688;7.130;2022-09-12T09:25:55;18.43;;;11.97;;
15616;SDS011;7908;51.688;7.130;2022-09-12T09:28:30;12.80;;;10.90;;
15616;SDS011;7908;51.688;7.130;2022-09-12T09:31:04;12.67;;;11.37;;
15616;SDS011;7908;51.688;7.130;2022-09-12T09:33:46;16.53;;;11.33;;
15616;SDS011;7908;51.688;7.130;2022-09-12T09:36:18;12.37;;;11.17;;
15616;SDS011;7908;51.688;7.130;2022-09-12T09:38:58;13.73;;;11.77;;
15616;SDS011;7908;51.688;7.130;2022-09-12T09:41:35;17.03;;;13.27;;
15616;SDS011;7908;51.688;7.130;2022-09-12T09:44:14;16.20;;;13.20;;
15616;SDS011;7908;51.688;7.130;2022-09-12T09:46:44;13.43;;;12.10;;
15616;SDS011;7908;51.688;7.130;2022-09-12T09:49:15;13.30;;;11.23;;
15616;SDS011;7908;51.688;7.130;2022-09-12T09:51:45;15.57;;;11.87;;
15616;SDS011;7908;51.688;7.130;2022-09-12T09:54:27;14.63;;;11.80;;
15616;SDS011;7908;51.688;7.130;2022-09-12T09:57:01;16.30;;;11.23;;
15616;SDS011;7908;51.688;7.130;2022-09-12T09:59:31;12.87;;;11.23;;
15616;SDS011;7908;51.688;7.130;2022-09-12T10:02:02;12.70;;;11.00;;
15616;SDS011;7908;51.688;7.130;2022-09-12T10:04:54;13.27;;;10.70;;
15616;SDS011;7908;51.688;7.130;2022-09-12T10:07:24;14.80;;;13.20;;
15616;SDS011;7908;51.688;7.130;2022-09-12T10:10:03;16.13;;;11.13;;
15616;SDS011;7908;51.688;7.130;2022-09-12T10:12:42;13.97;;;11.47;;
15616;SDS011;7908;51.688;7.130;2022-09-12T10:15:16;14.60;;;11.90;;
15616;SDS011;7908;51.688;7.130;2022-09-12T10:17:51;12.67;;;10.70;;
15616;SDS011;7908;51.688;7.130;2022-09-12T10:20:33;13.60;;;10.63;;
15616;SDS011;7908;51.688;7.130;2022-09-12T10:23:26;13.43;;;10.83;;
15616;SDS011;7908;51.688;7.130;2022-09-12T10:26:01;11.63;;;10.43;;
15616;SDS011;7908;51.688;7.130;2022-09-12T10:28:38;12.60;;;10.60;;
15616;SDS011;7908;51.688;7.130;2022-09-12T10:31:09;11.67;;;10.43;;
15616;SDS011;7908;51.688;7.130;2022-09-12T10:33:51;11.30;;;10.20;;
15616;SDS011;7908;51.688;7.130;2022-09-12T10:36:37;11.10;;;9.70;;
15616;SDS011;7908;51.688;7.130;2022-09-12T10:39:13;10.80;;;8.97;;
15616;SDS011;7908;51.688;7.130;2022-09-12T10:41:51;14.80;;;10.27;;
15616;SDS011;7908;51.688;7.130;2022-09-12T10:44:25;11.07;;;8.50;;
15616;SDS011;7908;51.688;7.130;2022-09-12T10:46:55;10.77;;;8.30;;
15616;SDS011;7908;51.688;7.130;2022-09-12T10:52:50;8.53;;;7.63;;
15616;SDS011;7908;51.688;7.130;2022-09-12T10:55:23;8.67;;;7.63;;
15616;SDS011;7908;51.688;7.130;2022-09-12T11:01:05;8.37;;;7.07;;
15616;SDS011;7908;51.688;7.130;2022-09-12T11:03:52;9.97;;;7.87;;
15616;SDS011;7908;51.688;7.130;2022-09-12T11:06:44;7.90;;;7.20;;
15616;SDS011;7908;51.688;7.130;2022-09-12T11:09:39;10.30;;;7.57;;
15616;SDS011;7908;51.688;7.130;2022-09-12T11:12:19;7.23;;;5.67;;
15616;SDS011;7908;51.688;7.130;2022-09-12T11:15:10;7.28;;;6.57;;
15616;SDS011;7908;51.688;7.130;2022-09-12T11:18:03;6.72;;;6.03;;
15616;SDS011;7908;51.688;7.130;2022-09-12T11:20:51;6.88;;;6.10;;
15616;SDS011;7908;51.688;7.130;2022-09-12T11:23:38;7.75;;;6.18;;
15616;SDS011;7908;51.688;7.130;2022-09-12T11:26:37;8.00;;;6.32;;
15616;SDS011;7908;51.688;7.130;2022-09-12T11:29:20;8.10;;;5.60;;
15616;SDS011;7908;51.688;7.130;2022-09-12T11:32:05;6.10;;;4.57;;
15616;SDS011;7908;51.688;7.130;2022-09-12T11:34:57;5.20;;;4.55;;
15616;SDS011;7908;51.688;7.130;2022-09-12T11:37:58;5.57;;;4.97;;
15616;SDS011;7908;51.688;7.130;2022-09-12T11:40:47;5.68;;;5.00;;
15616;SDS011;7908;51.688;7.130;2022-09-12T11:43:32;5.63;;;4.63;;
15616;SDS011;7908;51.688;7.130;2022-09-12T11:46:18;7.05;;;5.03;;
15616;SDS011;7908;51.688;7.130;2022-09-12T11:48:56;5.65;;;5.05;;
15616;SDS011;7908;51.688;7.130;2022-09-12T11:51:33;5.15;;;4.65;;
15616;SDS011;7908;51.688;7.130;2022-09-12T11:54:11;5.60;;;4.28;;
15616;SDS011;7908;51.688;7.130;2022-09-12T11:56:49;7.03;;;4.30;;
15616;SDS011;7908;51.688;7.130;2022-09-12T11:59:32;5.60;;;3.80;;
15616;SDS011;7908;51.688;7.130;2022-09-12T12:02:11;3.65;;;3.03;;
15616;SDS011;7908;51.688;7.130;2022-09-12T12:04:48;3.50;;;3.05;;
15616;SDS011;7908;51.688;7.130;2022-09-12T12:07:55;3.22;;;2.45;;
15616;SDS011;7908;51.688;7.130;2022-09-12T12:10:29;2.88;;;2.30;;
15616;SDS011;7908;51.688;7.130;2022-09-12T12:13:05;2.97;;;2.33;;
15616;SDS011;7908;51.688;7.130;2022-09-12T12:15:46;4.50;;;3.40;;
15616;SDS011;7908;51.688;7.130;2022-09-12T12:18:27;3.67;;;3.17;;
15616;SDS011;7908;51.688;7.130;2022-09-12T12:21:25;4.28;;;2.88;;
15616;SDS011;7908;51.688;7.130;2022-09-12T12:24:02;3.30;;;1.90;;
15616;SDS011;7908;51.688;7.130;2022-09-12T12:26:56;2.15;;;1.95;;
15616;SDS011;7908;51.688;7.130;2022-09-12T12:33:50;3.05;;;2.67;;
15616;SDS011;7908;51.688;7.130;2022-09-12T12:36:28;9.93;;;2.67;;
15616;SDS011;7908;51.688;7.130;2022-09-12T12:42:07;3.67;;;2.50;;
15616;SDS011;7908;51.688;7.130;2022-09-12T12:44:48;6.25;;;2.70;;
15616;SDS011;7908;51.688;7.130;2022-09-12T12:47:22;2.40;;;2.20;;
15616;SDS011;7908;51.688;7.130;2022-09-12T12:49:58;4.20;;;2.60;;
15616;SDS011;7908;51.688;7.130;2022-09-12T12:52:42;3.40;;;2.30;;
15616;SDS011;7908;51.688;7.130;2022-09-12T12:55:20;2.75;;;2.33;;
15616;SDS011;7908;51.688;7.130;2022-09-12T12:57:55;2.92;;;2.63;;
15616;SDS011;7908;51.688;7.130;2022-09-12T13:00:32;3.00;;;2.72;;
15616;SDS011;7908;51.688;7.130;2022-09-12T13:03:17;2.60;;;2.30;;
15616;SDS011;7908;51.688;7.130;2022-09-12T13:06:23;4.68;;;2.50;;
15616;SDS011;7908;51.688;7.130;2022-09-12T13:09:23;2.30;;;2.10;;
15616;SDS011;7908;51.688;7.130;2022-09-12T13:12:25;4.47;;;2.40;;
15616;SDS011;7908;51.688;7.130;2022-09-12T13:15:00;4.10;;;2.60;;
15616;SDS011;7908;51.688;7.130;2022-09-12T13:17:50;2.25;;;2.05;;
15616;SDS011;7908;51.688;7.130;2022-09-12T13:20:34;2.83;;;2.10;;
15616;SDS011;7908;51.688;7.130;2022-09-12T13:23:28;3.45;;;2.30;;
15616;SDS011;7908;51.688;7.130;2022-09-12T13:26:00;7.40;;;2.10;;
15616;SDS011;7908;51.688;7.130;2022-09-12T13:28:30;2.88;;;1.90;;
15616;SDS011;7908;51.688;7.130;2022-09-12T13:31:09;2.20;;;2.00;;
15616;SDS011;7908;51.688;7.130;2022-09-12T13:33:44;2.17;;;1.73;;
15616;SDS011;7908;51.688;7.130;2022-09-12T13:39:27;2.03;;;1.70;;
15616;SDS011;7908;51.688;7.130;2022-09-12T13:45:12;2.17;;;1.98;;
15616;SDS011;7908;51.688;7.130;2022-09-12T13:47:47;3.38;;;1.90;;
15616;SDS011;7908;51.688;7.130;2022-09-12T13:50:24;2.08;;;1.98;;
15616;SDS011;7908;51.688;7.130;2022-09-12T13:53:11;8.55;;;2.33;;
15616;SDS011;7908;51.688;7.130;2022-09-12T13:55:49;3.53;;;2.08;;
15616;SDS011;7908;51.688;7.130;2022-09-12T13:58:24;7.30;;;2.67;;
15616;SDS011;7908;51.688;7.130;2022-09-12T14:01:10;6.82;;;2.00;;
15616;SDS011;7908;51.688;7.130;2022-09-12T14:03:54;2.40;;;2.20;;
15616;SDS011;7908;51.688;7.130;2022-09-12T14:06:44;3.42;;;2.17;;
15616;SDS011;7908;51.688;7.130;2022-09-12T14:09:27;3.13;;;2.00;;
15616;SDS011;7908;51.688;7.130;2022-09-12T14:12:11;2.42;;;2.17;;
15616;SDS011;7908;51.688;7.130;2022-09-12T14:14:47;2.13;;;1.92;;
15616;SDS011;7908;51.688;7.130;2022-09-12T14:17:23;1.77;;;1.67;;
15616;SDS011;7908;51.688;7.130;2022-09-12T14:23:14;4.88;;;2.38;;
15616;SDS011;7908;51.688;7.130;2022-09-12T14:25:52;2.85;;;2.20;;
15616;SDS011;7908;51.688;7.130;2022-09-12T14:28:32;2.95;;;2.08;;
15616;SDS011;7908;51.688;7.130;2022-09-12T14:31:05;2.42;;;2.22;;
15616;SDS011;7908;51.688;7.130;2022-09-12T14:33:56;2.83;;;2.10;;
15616;SDS011;7908;51.688;7.130;2022-09-12T14:36:45;2.20;;;2.00;;
15616;SDS011;7908;51.688;7.130;2022-09-12T14:39:25;4.28;;;2.20;;
15616;SDS011;7908;51.688;7.130;2022-09-12T14:42:03;2.63;;;2.30;;
15616;SDS011;7908;51.688;7.130;2022-09-12T14:44:40;3.55;;;2.08;;
15616;SDS011;7908;51.688;7.130;2022-09-12T14:47:21;5.90;;;2.40;;
15616;SDS011;7908;51.688;7.130;2022-09-12T14:49:54;2.58;;;2.08;;
15616;SDS011;7908;51.688;7.130;2022-09-12T14:52:31;2.47;;;2.28;;
15616;SDS011;7908;51.688;7.130;2022-09-12T14:55:18;2.35;;;1.92;;
15616;SDS011;7908;51.688;7.130;2022-09-12T14:58:10;2.22;;;2.00;;
15616;SDS011;7908;51.688;7.130;2022-09-12T15:00:57;2.00;;;1.90;;
15616;SDS011;7908;51.688;7.130;2022-09-12T15:06:28;2.53;;;2.30;;
15616;SDS011;7908;51.688;7.130;2022-09-12T15:09:04;2.72;;;2.35;;
15616;SDS011;7908;51.688;7.130;2022-09-12T15:11:47;2.38;;;2.15;;
15616;SDS011;7908;51.688;7.130;2022-09-12T15:14:27;3.33;;;2.40;;
15616;SDS011;7908;51.688;7.130;2022-09-12T15:17:09;3.50;;;1.98;;
15616;SDS011;7908;51.688;7.130;2022-09-12T15:19:40;3.33;;;2.08;;
15616;SDS011;7908;51.688;7.130;2022-09-12T15:22:20;2.58;;;2.38;;
15616;SDS011;7908;51.688;7.130;2022-09-12T15:24:54;2.42;;;2.22;;
15616;SDS011;7908;51.688;7.130;2022-09-12T15:27:36;2.60;;;2.20;;
15616;SDS011;7908;51.688;7.130;2022-09-12T15:30:07;3.15;;;2.00;;
15616;SDS011;7908;51.688;7.130;2022-09-12T15:32:39;1.90;;;1.73;;
15616;SDS011;7908;51.688;7.130;2022-09-12T15:35:22;3.63;;;2.92;;
15616;SDS011;7908;51.688;7.130;2022-09-12T15:37:52;6.50;;;4.43;;
15616;SDS011;7908;51.688;7.130;2022-09-12T15:40:24;5.72;;;3.60;;
15616;SDS011;7908;51.688;7.130;2022-09-12T15:42:59;4.60;;;2.50;;
15616;SDS011;7908;51.688;7.130;2022-09-12T15:45:29;3.60;;;2.47;;
15616;SDS011;7908;51.688;7.130;2022-09-12T15:48:02;2.97;;;2.20;;
15616;SDS011;7908;51.688;7.130;2022-09-12T15:50:32;2.50;;;2.30;;
15616;SDS011;7908;51.688;7.130;2022-09-12T15:53:05;2.58;;;2.10;;
15616;SDS011;7908;51.688;7.130;2022-09-12T15:55:44;2.17;;;1.85;;
15616;SDS011;7908;51.688;7.130;2022-09-12T15:58:13;2.63;;;2.10;;
15616;SDS011;7908;51.688;7.130;2022-09-12T16:00:51;2.33;;;2.10;;
15616;SDS011;7908;51.688;7.130;2022-09-12T16:03:23;3.05;;;2.20;;
15616;SDS011;7908;51.688;7.130;2022-09-12T16:06:05;2.80;;;2.30;;
15616;SDS011;7908;51.688;7.130;2022-09-12T16:08:43;4.38;;;2.22;;
15616;SDS011;7908;51.688;7.130;2022-09-12T16:11:16;2.50;;;2.30;;
15616;SDS011;7908;51.688;7.130;2022-09-12T16:13:52;2.15;;;2.00;;
15616;SDS011;7908;51.688;7.130;2022-09-12T16:16:32;3.03;;;2.13;;
15616;SDS011;7908;51.688;7.130;2022-09-12T16:19:06;2.30;;;2.10;;
15616;SDS011;7908;51.688;7.130;2022-09-12T16:21:48;2.22;;;2.03;;